Time;durP1;ratioP1;P1;durP2;ratioP2;P2;SDS_P1;SDS_P2;PMS_P1;PMS_P2;Temp;Humidity;BMP_temperature;BMP_pressure;BME280_temperature;BME280_humidity;BME280_pressure;Samples;Min_cycle;Max_cycle;Signal;HPM_P1;HPM_P2
2022/04/13 00:01:36;;;;;;;;;;;13.50;99.90;;;;;;5022924;28;19921;-72
2022/04/13 00:04:01;;;;;;;;;;;13.50;99.90;;;;;;5025234;28;20135;-71
2022/04/13 00:06:27;;;;;;;;;;;13.60;99.90;;;;;;5022745;28;19978;-72
2022/04/13 00:08:55;;;;;;;;;;;13.50;99.90;;;;;;5021947;28;20402;-71
2022/04/13 00:11:21;;;;;;;;;;;13.60;99.90;;;;;;5021937;28;19947;-73
2022/04/13 00:13:47;;;;;;;;;;;13.60;99.90;;;;;;5022867;28;19947;-71
2022/04/13 00:16:13;;;;;;;;;;;13.60;99.90;;;;;;5023213;28;19913;-72
2022/04/13 00:18:39;;;;;;;;;;;13.60;99.90;;;;;;5022653;28;19909;-72
2022/04/13 00:21:04;;;;;;;;;;;13.60;99.90;;;;;;5021759;28;19913;-72
2022/04/13 00:23:31;;;;;;;;;;;13.70;99.90;;;;;;5022561;28;20318;-73
2022/04/13 00:25:59;;;;;;;;;;;13.60;99.90;;;;;;5023098;28;19921;-72
2022/04/13 00:28:25;;;;;;;;;;;13.60;99.90;;;;;;5021407;28;19917;-73
2022/04/13 00:30:50;;;;;;;;;;;13.60;99.90;;;;;;5025100;28;19909;-71
2022/04/13 00:33:16;;;;;;;;;;;13.60;99.90;;;;;;5022402;28;19916;-72
2022/04/13 00:35:41;;;;;;;;;;;13.60;99.90;;;;;;5018932;28;19913;-72
2022/04/13 00:38:07;;;;;;;;;;;13.60;99.90;;;;;;5020585;28;19928;-72
2022/04/13 00:40:36;;;;;;;;;;;13.70;99.90;;;;;;5021877;28;20413;-72
2022/04/13 00:43:01;;;;;;;;;;;13.60;99.90;;;;;;5023969;28;19905;-72
2022/04/13 00:45:27;;;;;;;;;;;13.60;99.90;;;;;;5023180;28;19924;-72
2022/04/13 00:47:53;;;;;;;;;;;13.70;99.90;;;;;;5021826;28;19909;-72
2022/04/13 00:50:20;;;;;;;;;;;13.60;99.90;;;;;;5020868;28;19912;-72
2022/04/13 00:52:47;;;;;;;;;;;13.70;99.90;;;;;;5022199;28;19944;-72
2022/04/13 00:55:13;;;;;;;;;;;13.70;99.90;;;;;;5022754;28;19918;-72
2022/04/13 00:57:40;;;;;;;;;;;13.70;99.90;;;;;;5019860;28;19905;-72
2022/04/13 01:00:06;;;;;;;;;;;13.70;99.90;;;;;;5009504;28;20397;-71
2022/04/13 01:02:32;;;;;;;;;;;13.60;99.90;;;;;;5027849;28;19913;-72
2022/04/13 01:05:00;;;;;;;;;;;13.60;99.90;;;;;;5028593;28;19963;-72
2022/04/13 01:07:25;;;;;;;;;;;13.70;99.90;;;;;;5028636;28;19913;-73
2022/04/13 01:09:51;;;;;;;;;;;13.60;99.90;;;;;;5031804;28;19912;-72
2022/04/13 01:12:17;;;;;;;;;;;13.60;99.90;;;;;;5028602;28;19909;-72
2022/04/13 01:14:43;;;;;;;;;;;13.60;99.90;;;;;;5028365;28;19905;-72
2022/04/13 01:17:08;;;;;;;;;;;13.60;99.90;;;;;;5028254;28;19909;-72
2022/04/13 01:19:34;;;;;;;;;;;13.50;99.90;;;;;;5028319;28;19949;-72
2022/04/13 01:22:12;;;;;;;;;;;13.50;99.90;;;;;;5031266;28;20004;-72
2022/04/13 01:24:38;;;;;;;;;;;13.40;99.90;;;;;;5031123;28;20333;-72
2022/04/13 01:27:03;;;;;;;;;;;13.40;99.90;;;;;;5010530;28;19909;-72
2022/04/13 01:29:29;;;;;;;;;;;13.30;99.90;;;;;;5028038;28;20433;-72
2022/04/13 01:31:55;;;;;;;;;;;13.30;99.90;;;;;;5028235;28;19927;-72
2022/04/13 01:34:20;;;;;;;;;;;13.30;99.90;;;;;;5028300;28;20051;-72
2022/04/13 01:36:46;;;;;;;;;;;13.30;99.90;;;;;;5032319;28;19905;-72
2022/04/13 01:39:11;;;;;;;;;;;13.20;99.90;;;;;;5027785;28;19931;-73
2022/04/13 01:41:37;;;;;;;;;;;13.10;99.90;;;;;;5028054;28;19917;-72
2022/04/13 01:44:03;;;;;;;;;;;13.10;99.90;;;;;;5028160;28;19916;-72
2022/04/13 01:46:28;;;;;;;;;;;13.10;99.90;;;;;;5028086;28;19940;-72
2022/04/13 01:48:54;;;;;;;;;;;13.00;99.90;;;;;;5031090;28;19906;-72
2022/04/13 01:51:20;;;;;;;;;;;13.00;99.90;;;;;;5028751;28;20456;-72
2022/04/13 01:53:49;;;;;;;;;;;13.10;99.90;;;;;;5028203;28;19932;-72
2022/04/13 01:56:15;;;;;;;;;;;13.10;99.90;;;;;;5027964;28;19966;-72
2022/04/13 01:58:40;;;;;;;;;;;13.10;99.90;;;;;;5028223;28;19917;-72
2022/04/13 02:01:06;;;;;;;;;;;13.10;99.90;;;;;;5030121;28;19913;-72
2022/04/13 02:03:32;;;;;;;;;;;13.10;99.90;;;;;;5029925;28;20255;-72
2022/04/13 02:05:58;;;;;;;;;;;13.10;99.90;;;;;;5027677;28;20003;-72
2022/04/13 02:08:23;;;;;;;;;;;13.10;99.90;;;;;;5027873;28;19987;-72
2022/04/13 02:10:49;;;;;;;;;;;13.10;99.90;;;;;;5027757;28;19959;-72
2022/04/13 02:13:15;;;;;;;;;;;13.00;99.90;;;;;;5028782;28;19967;-73
2022/04/13 02:15:41;;;;;;;;;;;13.10;99.90;;;;;;5013260;28;19955;-72
2022/04/13 02:18:06;;;;;;;;;;;13.00;99.90;;;;;;5027479;28;20362;-72
2022/04/13 02:20:32;;;;;;;;;;;13.00;99.90;;;;;;5010295;28;20004;-72
2022/04/13 02:22:58;;;;;;;;;;;13.00;99.90;;;;;;5027647;28;19905;-72
2022/04/13 02:25:24;;;;;;;;;;;12.90;99.90;;;;;;5027309;28;20400;-72
2022/04/13 02:27:49;;;;;;;;;;;12.80;99.90;;;;;;5031280;28;19912;-71
2022/04/13 02:30:15;;;;;;;;;;;12.80;99.90;;;;;;5029361;28;19920;-72
2022/04/13 02:32:43;;;;;;;;;;;12.70;99.90;;;;;;5031315;28;20370;-72
2022/04/13 02:35:09;;;;;;;;;;;12.60;99.90;;;;;;5031342;28;19995;-72
2022/04/13 02:37:35;;;;;;;;;;;12.50;99.90;;;;;;5013768;28;19910;-72
2022/04/13 02:40:01;;;;;;;;;;;12.40;99.90;;;;;;5033572;28;20275;-72
2022/04/13 02:42:36;;;;;;;;;;;12.40;99.90;;;;;;5032656;28;19905;-72
2022/04/13 02:45:02;;;;;;;;;;;12.30;99.90;;;;;;5031171;28;19920;-72
2022/04/13 02:47:28;;;;;;;;;;;12.40;99.90;;;;;;5030924;28;19913;-72
2022/04/13 02:49:54;;;;;;;;;;;12.30;99.90;;;;;;5031481;28;20321;-72
2022/04/13 02:52:20;;;;;;;;;;;12.30;99.90;;;;;;5031248;28;19955;-73
2022/04/13 02:54:46;;;;;;;;;;;12.40;99.90;;;;;;5035149;28;19913;-72
2022/04/13 02:57:11;;;;;;;;;;;12.40;99.90;;;;;;5030727;28;19979;-72
2022/04/13 02:59:37;;;;;;;;;;;12.50;99.90;;;;;;5030732;28;19972;-72
2022/04/13 03:02:04;;;;;;;;;;;12.50;99.90;;;;;;5031258;28;20008;-72
2022/04/13 03:04:34;;;;;;;;;;;12.60;99.90;;;;;;5031158;28;20004;-72
2022/04/13 03:07:00;;;;;;;;;;;12.60;99.90;;;;;;5032677;28;20309;-71
2022/04/13 03:09:25;;;;;;;;;;;12.60;99.90;;;;;;5032295;28;19913;-72
2022/04/13 03:11:51;;;;;;;;;;;12.60;99.90;;;;;;5030711;28;19912;-73
2022/04/13 03:14:17;;;;;;;;;;;12.70;99.90;;;;;;5030711;28;19909;-72
2022/04/13 03:16:42;;;;;;;;;;;12.70;99.90;;;;;;5031235;28;20271;-72
2022/04/13 03:19:08;;;;;;;;;;;12.60;99.90;;;;;;5015043;28;20305;-72
2022/04/13 03:21:33;;;;;;;;;;;12.60;99.90;;;;;;5032082;28;20000;-72
2022/04/13 03:23:59;;;;;;;;;;;12.70;99.90;;;;;;5030841;28;19916;-72
2022/04/13 03:26:25;;;;;;;;;;;12.70;99.90;;;;;;5030374;28;19917;-72
2022/04/13 03:28:51;;;;;;;;;;;12.70;99.90;;;;;;5030866;28;19935;-72
2022/04/13 03:31:16;;;;;;;;;;;12.80;99.90;;;;;;5031340;28;20390;-72
2022/04/13 03:33:42;;;;;;;;;;;12.80;99.90;;;;;;5033513;28;20431;-72
2022/04/13 03:36:08;;;;;;;;;;;12.80;99.90;;;;;;5029810;28;19909;-72
2022/04/13 03:38:34;;;;;;;;;;;12.90;99.90;;;;;;5029770;28;19916;-72
2022/04/13 03:41:02;;;;;;;;;;;12.80;99.90;;;;;;5029999;28;19948;-72
2022/04/13 03:43:28;;;;;;;;;;;12.80;99.90;;;;;;5030660;28;20366;-72
2022/04/13 03:45:53;;;;;;;;;;;12.80;99.90;;;;;;5033009;28;20011;-72
2022/04/13 03:48:19;;;;;;;;;;;12.80;99.90;;;;;;5031125;28;19959;-72
2022/04/13 03:50:45;;;;;;;;;;;12.80;99.90;;;;;;5030065;28;19905;-72
2022/04/13 03:53:10;;;;;;;;;;;12.80;99.90;;;;;;5029659;28;19970;-72
2022/04/13 03:55:36;;;;;;;;;;;12.70;99.90;;;;;;5030751;28;19910;-72
2022/04/13 03:58:01;;;;;;;;;;;12.60;99.90;;;;;;5032075;28;20011;-72
2022/04/13 04:00:27;;;;;;;;;;;12.40;99.90;;;;;;5008802;28;19910;-72
2022/04/13 04:02:53;;;;;;;;;;;12.20;99.90;;;;;;5029747;28;19948;-72
2022/04/13 04:05:18;;;;;;;;;;;12.20;99.90;;;;;;5029272;28;19924;-72
2022/04/13 04:07:44;;;;;;;;;;;12.20;99.90;;;;;;5029942;28;19905;-72
2022/04/13 04:10:10;;;;;;;;;;;12.20;99.90;;;;;;5031694;28;20426;-72
2022/04/13 04:12:37;;;;;;;;;;;12.30;99.90;;;;;;5032018;28;19916;-72
2022/04/13 04:15:03;;;;;;;;;;;12.30;99.90;;;;;;5029565;28;20342;-72
2022/04/13 04:17:28;;;;;;;;;;;12.40;99.90;;;;;;5029382;28;19916;-72
2022/04/13 04:19:54;;;;;;;;;;;12.40;99.90;;;;;;5029088;28;20381;-72
2022/04/13 04:22:21;;;;;;;;;;;12.40;99.90;;;;;;5029902;28;19909;-72
2022/04/13 04:24:47;;;;;;;;;;;12.40;99.90;;;;;;5028731;28;19905;-72
2022/04/13 04:27:13;;;;;;;;;;;12.40;99.90;;;;;;5029679;28;20019;-72
2022/04/13 04:29:38;;;;;;;;;;;12.30;99.90;;;;;;5029333;28;19959;-71
2022/04/13 04:32:04;;;;;;;;;;;12.30;99.90;;;;;;5029177;28;19912;-72
2022/04/13 04:34:30;;;;;;;;;;;12.30;99.90;;;;;;5029100;28;20287;-72
2022/04/13 04:36:55;;;;;;;;;;;12.30;99.90;;;;;;5014316;28;19905;-72
2022/04/13 04:39:21;;;;;;;;;;;12.40;99.90;;;;;;5012278;28;19921;-72
2022/04/13 04:41:47;;;;;;;;;;;12.30;99.90;;;;;;5028853;28;20362;-72
2022/04/13 04:44:12;;;;;;;;;;;12.30;99.90;;;;;;5011875;28;20431;-72
2022/04/13 04:46:38;;;;;;;;;;;12.30;99.90;;;;;;5029536;28;19940;-72
2022/04/13 04:49:04;;;;;;;;;;;12.20;99.90;;;;;;5030861;28;19905;-71
2022/04/13 04:51:33;;;;;;;;;;;12.20;99.90;;;;;;5029959;28;20406;-72
2022/04/13 04:53:59;;;;;;;;;;;12.20;99.90;;;;;;5028206;28;19905;-73
2022/04/13 04:56:25;;;;;;;;;;;12.20;99.90;;;;;;5028665;28;19909;-72
2022/04/13 04:58:50;;;;;;;;;;;12.20;99.90;;;;;;5028766;28;19905;-73
2022/04/13 05:01:16;;;;;;;;;;;12.20;99.90;;;;;;5029152;28;19913;-72
2022/04/13 05:03:44;;;;;;;;;;;12.20;99.90;;;;;;5031728;28;20385;-72
2022/04/13 05:06:10;;;;;;;;;;;12.20;99.90;;;;;;5027985;28;19919;-72
2022/04/13 05:08:35;;;;;;;;;;;12.10;99.90;;;;;;5011334;28;20285;-72
2022/04/13 05:11:02;;;;;;;;;;;12.10;99.90;;;;;;5028957;28;19958;-73
2022/04/13 05:13:29;;;;;;;;;;;12.10;99.90;;;;;;5029107;28;20375;-73
2022/04/13 05:15:54;;;;;;;;;;;12.10;99.90;;;;;;5031194;28;20259;-72
2022/04/13 05:18:20;;;;;;;;;;;12.00;99.90;;;;;;5028860;28;19912;-73
2022/04/13 05:20:46;;;;;;;;;;;12.00;99.90;;;;;;5028144;28;20377;-73
2022/04/13 05:23:11;;;;;;;;;;;11.90;99.90;;;;;;5028251;28;19909;-72
2022/04/13 05:25:37;;;;;;;;;;;11.80;99.90;;;;;;5028429;28;20397;-73
2022/04/13 05:28:02;;;;;;;;;;;11.80;99.90;;;;;;5030678;28;19916;-74
2022/04/13 05:30:28;;;;;;;;;;;11.70;99.90;;;;;;5029467;28;19916;-73
2022/04/13 05:32:57;;;;;;;;;;;11.80;99.90;;;;;;5027632;28;19951;-72
2022/04/13 05:35:26;;;;;;;;;;;11.80;99.90;;;;;;5028077;28;19955;-73
2022/04/13 05:37:52;;;;;;;;;;;11.90;99.90;;;;;;5028018;28;19909;-73
2022/04/13 05:40:18;;;;;;;;;;;12.00;99.90;;;;;;5028987;28;19928;-73
2022/04/13 05:42:43;;;;;;;;;;;12.00;99.90;;;;;;5031363;28;19928;-73
2022/04/13 05:45:09;;;;;;;;;;;12.00;99.90;;;;;;5027881;28;20396;-72
2022/04/13 05:47:35;;;;;;;;;;;12.00;99.90;;;;;;5027403;28;19979;-73
2022/04/13 05:50:01;;;;;;;;;;;12.00;99.90;;;;;;5028119;28;19913;-73
2022/04/13 05:52:27;;;;;;;;;;;12.10;99.90;;;;;;5028500;28;20424;-72
2022/04/13 05:54:53;;;;;;;;;;;12.20;99.90;;;;;;5031662;28;19948;-73
2022/04/13 05:57:18;;;;;;;;;;;12.30;99.90;;;;;;5028769;28;19947;-72
2022/04/13 05:59:44;;;;;;;;;;;12.40;99.90;;;;;;5028269;28;19916;-73
2022/04/13 06:02:10;;;;;;;;;;;12.40;99.90;;;;;;5027457;28;19916;-72
2022/04/13 06:04:35;;;;;;;;;;;12.40;99.90;;;;;;5030288;28;19956;-73
2022/04/13 06:07:01;;;;;;;;;;;12.40;99.90;;;;;;5034370;28;19912;-73
2022/04/13 06:09:27;;;;;;;;;;;12.40;99.90;;;;;;5033179;28;19948;-72
2022/04/13 06:11:53;;;;;;;;;;;12.40;99.90;;;;;;5031703;28;19955;-73
2022/04/13 06:14:18;;;;;;;;;;;12.40;99.90;;;;;;5032015;28;19910;-73
2022/04/13 06:16:44;;;;;;;;;;;12.30;99.90;;;;;;5031438;28;19913;-73
2022/04/13 06:19:09;;;;;;;;;;;12.30;99.90;;;;;;5033566;28;19905;-73
2022/04/13 06:21:35;;;;;;;;;;;12.40;99.90;;;;;;5033586;28;19973;-73
2022/04/13 06:24:01;;;;;;;;;;;12.30;99.90;;;;;;5031585;28;20283;-73
2022/04/13 06:26:26;;;;;;;;;;;12.40;99.90;;;;;;5031880;28;20342;-73
2022/04/13 06:28:52;;;;;;;;;;;12.40;99.90;;;;;;5031719;28;19917;-73
2022/04/13 06:31:18;;;;;;;;;;;12.40;99.90;;;;;;5031996;28;19971;-72
2022/04/13 06:33:44;;;;;;;;;;;12.40;99.90;;;;;;5034410;28;20003;-72
2022/04/13 06:36:09;;;;;;;;;;;12.50;99.90;;;;;;5031310;28;19944;-72
2022/04/13 06:38:35;;;;;;;;;;;12.50;99.90;;;;;;5031074;28;19924;-72
2022/04/13 06:41:01;;;;;;;;;;;12.60;99.90;;;;;;5013910;28;19913;-73
2022/04/13 06:43:26;;;;;;;;;;;12.60;99.90;;;;;;5031837;28;20055;-73
2022/04/13 06:45:52;;;;;;;;;;;12.60;99.90;;;;;;5034138;28;19923;-73
2022/04/13 06:48:18;;;;;;;;;;;12.60;99.90;;;;;;5033370;28;19905;-73
2022/04/13 06:50:44;;;;;;;;;;;12.60;99.90;;;;;;5030848;28;19992;-75
2022/04/13 06:53:09;;;;;;;;;;;12.60;99.90;;;;;;5031037;28;19991;-75
2022/04/13 06:55:37;;;;;;;;;;;12.70;99.90;;;;;;5031015;28;19991;-75
2022/04/13 06:58:03;;;;;;;;;;;12.70;99.90;;;;;;5015708;28;20331;-75
2022/04/13 07:00:28;;;;;;;;;;;12.70;99.90;;;;;;5032056;28;19940;-74
2022/04/13 07:02:57;;;;;;;;;;;12.80;99.90;;;;;;5030830;28;19920;-75
2022/04/13 07:05:26;;;;;;;;;;;12.80;99.90;;;;;;5030752;28;19959;-75
2022/04/13 07:07:52;;;;;;;;;;;12.80;99.90;;;;;;5030853;28;19909;-75
2022/04/13 07:10:18;;;;;;;;;;;12.90;99.90;;;;;;5031790;28;19936;-74
2022/04/13 07:12:43;;;;;;;;;;;12.90;99.90;;;;;;5033796;28;19909;-73
2022/04/13 07:15:09;;;;;;;;;;;13.00;99.90;;;;;;5029753;28;19916;-74
2022/04/13 07:17:35;;;;;;;;;;;13.00;99.90;;;;;;5012988;28;20358;-72
2022/04/13 07:20:00;;;;;;;;;;;13.10;99.90;;;;;;5030763;28;19952;-74
2022/04/13 07:22:26;;;;;;;;;;;13.20;99.90;;;;;;5026301;28;19957;-70
2022/04/13 07:24:52;;;;;;;;;;;13.20;99.90;;;;;;5022282;28;20333;-70
2022/04/13 07:27:17;;;;;;;;;;;13.20;99.90;;;;;;5024141;28;19917;-70
2022/04/13 07:29:43;;;;;;;;;;;13.40;99.90;;;;;;5023079;28;19916;-70
2022/04/13 07:32:09;;;;;;;;;;;13.40;99.90;;;;;;5023285;28;20293;-70
2022/04/13 07:34:35;;;;;;;;;;;13.40;99.90;;;;;;5023119;28;19909;-69
2022/04/13 07:37:01;;;;;;;;;;;13.50;99.90;;;;;;5025686;28;19982;-71
2022/04/13 07:39:26;;;;;;;;;;;13.50;99.90;;;;;;5024131;28;20279;-70
2022/04/13 07:41:52;;;;;;;;;;;13.60;99.90;;;;;;5022205;28;19912;-70
2022/04/13 07:44:18;;;;;;;;;;;13.60;99.90;;;;;;5026150;28;20346;-70
2022/04/13 07:46:43;;;;;;;;;;;13.60;99.90;;;;;;5027356;28;19920;-70
2022/04/13 07:49:09;;;;;;;;;;;13.70;99.90;;;;;;5028146;28;19905;-70
2022/04/13 07:51:35;;;;;;;;;;;13.80;99.90;;;;;;5028622;28;20649;-70
2022/04/13 07:54:03;;;;;;;;;;;13.80;99.90;;;;;;5027169;28;19917;-70
2022/04/13 07:56:29;;;;;;;;;;;13.90;99.90;;;;;;5026565;28;19952;-70
2022/04/13 07:58:55;;;;;;;;;;;14.00;99.90;;;;;;5026071;28;19959;-70
2022/04/13 08:01:20;;;;;;;;;;;14.00;99.90;;;;;;5026809;28;19916;-70
2022/04/13 08:03:46;;;;;;;;;;;14.20;99.90;;;;;;5030418;28;19948;-70
2022/04/13 08:06:12;;;;;;;;;;;14.30;99.90;;;;;;5026737;28;19928;-70
2022/04/13 08:08:38;;;;;;;;;;;14.50;99.90;;;;;;5027116;28;19935;-70
2022/04/13 08:11:04;;;;;;;;;;;14.60;99.90;;;;;;5026525;28;19913;-70
2022/04/13 08:13:30;;;;;;;;;;;14.60;99.90;;;;;;5026159;28;19982;-70
2022/04/13 08:15:56;;;;;;;;;;;14.70;99.90;;;;;;5011055;28;19975;-70
2022/04/13 08:18:21;;;;;;;;;;;14.90;99.90;;;;;;5027447;28;19901;-70
2022/04/13 08:20:47;;;;;;;;;;;15.00;99.90;;;;;;5026296;28;19966;-70
2022/04/13 08:23:12;;;;;;;;;;;15.10;99.90;;;;;;5026337;28;19928;-70
2022/04/13 08:25:38;;;;;;;;;;;15.20;99.90;;;;;;5025862;28;19921;-70
2022/04/13 08:28:04;;;;;;;;;;;15.40;99.90;;;;;;5027226;28;20392;-70
2022/04/13 08:30:29;;;;;;;;;;;15.40;99.90;;;;;;5027891;28;20007;-70
2022/04/13 08:32:55;;;;;;;;;;;15.60;99.90;;;;;;5026105;28;19992;-70
2022/04/13 08:35:20;;;;;;;;;;;15.60;99.90;;;;;;5025958;28;19948;-70
2022/04/13 08:37:46;;;;;;;;;;;15.70;99.90;;;;;;5025982;28;19920;-70
2022/04/13 08:40:12;;;;;;;;;;;15.80;99.90;;;;;;5027291;28;20417;-70
2022/04/13 08:42:48;;;;;;;;;;;15.70;99.90;;;;;;5027787;28;19962;-70
2022/04/13 08:45:24;;;;;;;;;;;15.80;99.90;;;;;;5025747;28;19962;-70
2022/04/13 08:47:50;;;;;;;;;;;15.90;99.90;;;;;;5026086;28;20429;-70
2022/04/13 08:50:17;;;;;;;;;;;15.90;99.90;;;;;;5025601;28;19996;-70
2022/04/13 08:52:47;;;;;;;;;;;16.00;99.90;;;;;;5025283;28;19920;-70
2022/04/13 08:55:16;;;;;;;;;;;16.10;99.90;;;;;;5026431;28;19917;-70
2022/04/13 08:57:45;;;;;;;;;;;16.20;99.90;;;;;;5028523;28;19912;-70
2022/04/13 09:00:13;;;;;;;;;;;16.30;99.90;;;;;;5025190;28;19913;-70
2022/04/13 09:02:47;;;;;;;;;;;16.50;99.90;;;;;;5025882;28;19955;-70
2022/04/13 09:05:23;;;;;;;;;;;16.50;99.90;;;;;;5025047;28;20004;-70
2022/04/13 09:07:53;;;;;;;;;;;16.60;99.90;;;;;;5025678;28;19913;-70
2022/04/13 09:10:20;;;;;;;;;;;16.70;99.90;;;;;;5025767;28;19913;-70
2022/04/13 09:12:46;;;;;;;;;;;16.80;99.90;;;;;;5028748;28;19905;-70
2022/04/13 09:15:13;;;;;;;;;;;16.80;99.90;;;;;;5025520;28;19913;-70
2022/04/13 09:17:40;;;;;;;;;;;17.00;99.90;;;;;;5025188;28;19913;-70
2022/04/13 09:20:06;;;;;;;;;;;17.10;99.90;;;;;;5027175;28;19967;-70
2022/04/13 09:22:32;;;;;;;;;;;17.10;99.90;;;;;;5026444;28;19917;-70
2022/04/13 09:24:58;;;;;;;;;;;17.00;99.90;;;;;;5024335;28;19967;-72
2022/04/13 09:27:24;;;;;;;;;;;17.00;99.90;;;;;;5028656;28;19915;-72
2022/04/13 09:29:50;;;;;;;;;;;17.00;99.40;;;;;;5028328;28;20285;-72
2022/04/13 09:32:17;;;;;;;;;;;17.00;99.90;;;;;;5027701;28;19916;-72
2022/04/13 09:34:42;;;;;;;;;;;17.10;99.90;;;;;;5028553;28;19920;-72
2022/04/13 09:37:08;;;;;;;;;;;17.10;99.90;;;;;;5030245;28;19909;-72
2022/04/13 09:39:34;;;;;;;;;;;17.20;99.90;;;;;;5028970;28;19928;-72
2022/04/13 09:42:03;;;;;;;;;;;17.20;99.90;;;;;;5027564;28;19941;-73
2022/04/13 09:44:30;;;;;;;;;;;17.30;99.90;;;;;;5028006;28;20382;-72
2022/04/13 09:47:09;;;;;;;;;;;17.30;99.90;;;;;;5028603;28;19920;-72
2022/04/13 09:49:34;;;;;;;;;;;17.30;99.90;;;;;;5028099;28;19960;-72
2022/04/13 09:52:00;;;;;;;;;;;17.30;99.90;;;;;;5030160;28;20342;-72
2022/04/13 09:54:26;;;;;;;;;;;17.50;99.90;;;;;;5028658;28;19905;-72
2022/04/13 09:56:52;;;;;;;;;;;17.60;99.90;;;;;;5027912;28;20416;-72
2022/04/13 09:59:30;;;;;;;;;;;17.70;99.90;;;;;;5027580;28;19909;-72
2022/04/13 10:01:56;;;;;;;;;;;17.50;99.30;;;;;;5027919;28;20317;-72
2022/04/13 10:04:23;;;;;;;;;;;17.50;99.30;;;;;;5010809;28;19909;-72
2022/04/13 10:06:48;;;;;;;;;;;17.60;99.90;;;;;;5027101;28;19913;-73
2022/04/13 10:09:14;;;;;;;;;;;17.90;99.40;;;;;;5028239;28;19916;-72
2022/04/13 10:11:56;;;;;;;;;;;18.10;99.60;;;;;;5027738;28;20392;-72
2022/04/13 10:14:22;;;;;;;;;;;18.20;98.90;;;;;;5027834;28;19909;-72
2022/04/13 10:16:51;;;;;;;;;;;18.10;96.50;;;;;;5027769;28;20023;-72
2022/04/13 10:19:20;;;;;;;;;;;18.00;96.40;;;;;;5028822;28;19910;-71
2022/04/13 10:21:46;;;;;;;;;;;17.90;95.40;;;;;;5031442;28;19905;-72
2022/04/13 10:24:21;;;;;;;;;;;18.00;97.20;;;;;;5027532;28;20036;-71
2022/04/13 10:27:10;;;;;;;;;;;18.30;97.00;;;;;;5027693;28;19925;-72
2022/04/13 10:29:36;;;;;;;;;;;18.50;96.40;;;;;;5016806;28;20372;-72
2022/04/13 10:32:03;;;;;;;;;;;18.80;96.80;;;;;;5027670;28;19963;-72
2022/04/13 10:34:30;;;;;;;;;;;18.90;95.90;;;;;;5027717;28;19917;-72
2022/04/13 10:36:55;;;;;;;;;;;18.80;92.60;;;;;;5031031;28;19905;-73
2022/04/13 10:39:21;;;;;;;;;;;19.00;95.20;;;;;;5027833;28;19923;-72
2022/04/13 10:41:48;;;;;;;;;;;19.10;91.60;;;;;;5027204;28;20385;-72
2022/04/13 10:44:15;;;;;;;;;;;19.30;92.00;;;;;;5027207;28;19909;-72
2022/04/13 10:46:41;;;;;;;;;;;19.30;91.70;;;;;;5027403;28;19964;-71
2022/04/13 10:49:08;;;;;;;;;;;19.50;91.20;;;;;;5029437;28;19960;-68
2022/04/13 10:51:34;;;;;;;;;;;19.30;89.20;;;;;;5030363;28;19913;-70
2022/04/13 10:54:01;;;;;;;;;;;19.30;92.20;;;;;;5031177;28;20377;-69
2022/04/13 10:56:30;;;;;;;;;;;19.20;91.60;;;;;;5013768;28;20275;-69
2022/04/13 10:59:27;;;;;;;;;;;19.10;90.00;;;;;;5031025;28;19913;-70
2022/04/13 11:01:57;;;;;;;;;;;18.90;90.70;;;;;;4957423;28;19914;-70
2022/04/13 11:04:24;;;;;;;;;;;19.00;92.00;;;;;;4956957;28;20323;-70
2022/04/13 11:06:50;;;;;;;;;;;18.90;87.90;;;;;;4969058;28;19997;-70
2022/04/13 11:09:26;;;;;;;;;;;18.80;90.70;;;;;;4961331;28;19911;-69
2022/04/13 11:11:53;;;;;;;;;;;18.90;91.20;;;;;;4960585;28;19970;-70
2022/04/13 11:14:19;;;;;;;;;;;18.80;91.70;;;;;;4960978;28;20415;-69
2022/04/13 11:16:45;;;;;;;;;;;18.90;92.20;;;;;;4959985;28;19987;-69
2022/04/13 11:19:10;;;;;;;;;;;18.90;90.50;;;;;;4956418;28;20380;-69
2022/04/13 11:21:51;;;;;;;;;;;18.90;91.00;;;;;;4959004;28;20276;-69
2022/04/13 11:24:35;;;;;;;;;;;18.90;90.90;;;;;;4967372;28;20395;-69
2022/04/13 11:27:01;;;;;;;;;;;18.90;90.10;;;;;;4963459;28;19977;-72
2022/04/13 11:29:36;;;;;;;;;;;18.90;90.50;;;;;;4960725;28;19911;-69
2022/04/13 11:32:01;;;;;;;;;;;19.00;90.60;;;;;;4971931;28;19952;-69
2022/04/13 11:34:31;;;;;;;;;;;19.10;88.80;;;;;;4956817;28;19954;-68
2022/04/13 11:37:00;;;;;;;;;;;19.20;90.80;;;;;;4973650;28;19909;-69
2022/04/13 11:39:45;;;;;;;;;;;19.10;90.00;;;;;;5032613;28;19917;-69
2022/04/13 11:42:17;;;;;;;;;;;19.20;91.20;;;;;;5030553;28;19909;-69
2022/04/13 11:45:01;;;;;;;;;;;19.30;89.20;;;;;;5030288;28;19948;-69
2022/04/13 11:47:40;;;;;;;;;;;19.40;88.50;;;;;;5029865;28;20512;-69
2022/04/13 11:50:18;;;;;;;;;;;19.40;90.80;;;;;;5029721;28;19932;-70
2022/04/13 11:53:02;;;;;;;;;;;19.40;90.30;;;;;;5028778;28;19920;-69
2022/04/13 11:55:30;;;;;;;;;;;19.40;90.00;;;;;;5022895;28;19913;-69
2022/04/13 11:58:07;;;;;;;;;;;19.40;90.10;;;;;;5022973;28;19916;-69
2022/04/13 12:00:40;;;;;;;;;;;19.50;88.20;;;;;;5023926;28;19944;-70
2022/04/13 12:03:12;;;;;;;;;;;19.70;87.90;;;;;;5026427;28;19913;-70
2022/04/13 12:05:38;;;;;;;;;;;19.80;90.10;;;;;;5025538;28;19916;-69
2022/04/13 12:08:27;;;;;;;;;;;19.80;88.20;;;;;;5026604;28;19909;-70
2022/04/13 12:10:57;;;;;;;;;;;19.80;87.30;;;;;;5015953;28;19932;-70
2022/04/13 12:13:23;;;;;;;;;;;19.90;89.50;;;;;;5009324;28;19913;-69
2022/04/13 12:15:50;;;;;;;;;;;19.70;85.40;;;;;;5030257;28;19948;-70
2022/04/13 12:18:16;;;;;;;;;;;19.80;87.70;;;;;;5025471;28;19916;-69
2022/04/13 12:20:42;;;;;;;;;;;19.90;86.20;;;;;;5026672;28;19913;-70
2022/04/13 12:23:14;;;;;;;;;;;20.00;84.20;;;;;;5027033;28;19913;-70
2022/04/13 12:25:43;;;;;;;;;;;20.20;87.60;;;;;;5026413;28;19968;-70
2022/04/13 12:28:09;;;;;;;;;;;20.50;89.20;;;;;;5028503;28;20400;-70
2022/04/13 12:30:35;;;;;;;;;;;20.80;85.80;;;;;;5028045;28;20330;-69
2022/04/13 12:33:11;;;;;;;;;;;20.90;85.70;;;;;;5027650;28;19952;-70
2022/04/13 12:35:47;;;;;;;;;;;20.70;83.50;;;;;;5026622;28;19916;-70
2022/04/13 12:38:20;;;;;;;;;;;20.80;81.30;;;;;;5025972;28;19936;-70
2022/04/13 12:40:46;;;;;;;;;;;20.80;80.50;;;;;;5026102;28;19913;-70
2022/04/13 12:43:11;;;;;;;;;;;21.10;79.50;;;;;;5027934;28;20366;-70
2022/04/13 12:45:37;;;;;;;;;;;21.20;83.20;;;;;;5006864;28;19963;-70
2022/04/13 12:48:08;;;;;;;;;;;21.30;82.00;;;;;;5023723;28;19979;-70
2022/04/13 12:50:33;;;;;;;;;;;21.50;79.60;;;;;;5022655;28;19917;-70
2022/04/13 12:52:59;;;;;;;;;;;21.60;78.30;;;;;;5025621;28;19913;-70
2022/04/13 12:55:25;;;;;;;;;;;21.50;78.20;;;;;;5026313;28;19917;-70
2022/04/13 12:57:51;;;;;;;;;;;21.60;75.10;;;;;;5029363;28;19915;-70
2022/04/13 13:00:39;;;;;;;;;;;21.40;75.60;;;;;;5025821;28;19908;-70
2022/04/13 13:03:05;;;;;;;;;;;21.30;75.70;;;;;;5015100;28;19980;-69
2022/04/13 13:05:30;;;;;;;;;;;21.20;76.50;;;;;;5025093;28;19921;-68
2022/04/13 13:07:56;;;;;;;;;;;21.10;75.50;;;;;;5025148;28;20003;-69
2022/04/13 13:10:21;;;;;;;;;;;21.10;76.40;;;;;;5026903;28;19914;-69
2022/04/13 13:13:07;;;;;;;;;;;21.00;74.80;;;;;;5023591;28;19916;-70
2022/04/13 13:15:36;;;;;;;;;;;21.10;78.10;;;;;;5024882;28;19912;-70
2022/04/13 13:18:08;;;;;;;;;;;21.40;77.60;;;;;;5020963;28;19917;-69
2022/04/13 13:20:33;;;;;;;;;;;21.50;80.30;;;;;;5022313;28;19912;-69
2022/04/13 13:23:05;;;;;;;;;;;21.60;77.40;;;;;;5020837;28;19963;-70
2022/04/13 13:25:39;;;;;;;;;;;21.70;75.70;;;;;;5021464;28;20015;-70
2022/04/13 13:28:05;;;;;;;;;;;21.90;76.80;;;;;;5005889;28;19952;-69
2022/04/13 13:30:36;;;;;;;;;;;22.00;76.40;;;;;;5021493;28;20222;-70
2022/04/13 13:33:02;;;;;;;;;;;22.10;76.00;;;;;;5021176;28;19920;-69
2022/04/13 13:35:30;;;;;;;;;;;22.20;72.30;;;;;;5021350;28;19913;-69
2022/04/13 13:38:03;;;;;;;;;;;22.30;73.40;;;;;;5020861;28;19923;-70
2022/04/13 13:40:41;;;;;;;;;;;22.40;74.30;;;;;;5006009;28;19925;-70
2022/04/13 13:43:10;;;;;;;;;;;22.40;73.20;;;;;;5024921;28;19945;-69
2022/04/13 13:45:39;;;;;;;;;;;22.40;74.50;;;;;;5024499;28;20297;-69
2022/04/13 13:48:09;;;;;;;;;;;22.40;72.10;;;;;;5023991;28;19954;-69
2022/04/13 13:50:36;;;;;;;;;;;22.40;72.90;;;;;;5023568;28;19960;-70
2022/04/13 13:53:03;;;;;;;;;;;22.50;71.30;;;;;;5024130;28;20397;-70
2022/04/13 13:55:29;;;;;;;;;;;22.50;72.90;;;;;;5024323;28;19955;-70
2022/04/13 13:57:58;;;;;;;;;;;22.40;73.10;;;;;;5026964;28;19987;-70
2022/04/13 14:00:25;;;;;;;;;;;22.30;76.10;;;;;;5024528;28;19916;-70
2022/04/13 14:02:54;;;;;;;;;;;22.20;76.70;;;;;;5024360;28;19909;-70
2022/04/13 14:05:21;;;;;;;;;;;22.00;76.80;;;;;;5027626;28;19913;-70
2022/04/13 14:07:46;;;;;;;;;;;22.00;78.30;;;;;;5027684;28;19917;-69
2022/04/13 14:10:12;;;;;;;;;;;21.60;80.50;;;;;;5029647;28;19909;-69
2022/04/13 14:12:38;;;;;;;;;;;21.30;80.50;;;;;;5029577;28;19905;-70
2022/04/13 14:15:04;;;;;;;;;;;21.30;81.10;;;;;;5027445;28;19919;-70
2022/04/13 14:17:30;;;;;;;;;;;21.30;82.50;;;;;;5027560;28;19941;-70